Time;durP1;ratioP1;P1;durP2;ratioP2;P2;SDS_P1;SDS_P2;PMS_P1;PMS_P2;Temp;Humidity;BMP_temperature;BMP_pressure;BME280_temperature;BME280_humidity;BME280_pressure;Samples;Min_cycle;Max_cycle;Signal;HPM_P1;HPM_P2
2023/03/20 00:01:35;;;;;;;4.37;2.10;;;9.90;99.90;;;;;;4139789;28;20266;-74
2023/03/20 00:03:37;;;;;;;4.13;2.17;;;9.90;99.90;;;;;;4141060;28;20207;-74
2023/03/20 00:05:39;;;;;;;3.70;2.23;;;9.90;99.90;;;;;;4152620;28;20272;-75
2023/03/20 00:07:42;;;;;;;3.23;2.40;;;9.90;99.90;;;;;;4137807;28;20203;-75
2023/03/20 00:09:48;;;;;;;4.17;2.47;;;9.90;99.90;;;;;;4141139;28;20215;-75
2023/03/20 00:11:52;;;;;;;4.03;2.30;;;9.90;99.90;;;;;;4144974;28;20692;-75
2023/03/20 00:13:55;;;;;;;4.63;2.47;;;9.90;99.90;;;;;;4142150;28;20261;-74
2023/03/20 00:15:58;;;;;;;3.80;2.40;;;9.90;99.90;;;;;;4140160;28;20297;-75
2023/03/20 00:18:00;;;;;;;9.53;2.80;;;9.90;99.90;;;;;;4148181;28;20270;-74
2023/03/20 00:20:02;;;;;;;3.80;2.10;;;9.80;99.90;;;;;;4148295;28;20290;-75
2023/03/20 00:22:04;;;;;;;3.30;2.43;;;9.90;99.90;;;;;;4140475;28;20259;-74
2023/03/20 00:24:07;;;;;;;2.43;2.03;;;9.90;99.90;;;;;;4138588;28;20671;-74
2023/03/20 00:26:12;;;;;;;3.67;2.30;;;9.90;99.90;;;;;;4152477;28;20206;-76
2023/03/20 00:28:42;;;;;;;3.67;2.50;;;9.90;99.90;;;;;;4158445;28;20219;-74
2023/03/20 00:30:44;;;;;;;3.20;2.23;;;9.90;99.90;;;;;;4129079;28;20793;-76
2023/03/20 00:32:48;;;;;;;3.10;2.20;;;9.80;99.90;;;;;;4149819;28;20244;-75
2023/03/20 00:34:50;;;;;;;5.07;2.73;;;9.80;99.90;;;;;;4144911;28;20235;-75
2023/03/20 00:36:52;;;;;;;4.07;2.40;;;9.80;99.90;;;;;;4140248;28;20219;-74
2023/03/20 00:38:56;;;;;;;4.20;2.30;;;9.80;99.90;;;;;;4145720;28;20211;-74
2023/03/20 00:40:58;;;;;;;3.73;2.53;;;9.80;99.90;;;;;;4145543;28;20335;-75
2023/03/20 00:43:02;;;;;;;3.67;2.53;;;9.80;99.90;;;;;;4136165;28;20233;-75
2023/03/20 00:45:05;;;;;;;4.20;2.43;;;9.80;99.90;;;;;;4138625;28;20719;-74
2023/03/20 00:47:13;;;;;;;3.63;2.67;;;9.70;99.90;;;;;;4137198;28;20213;-75
2023/03/20 00:49:16;;;;;;;4.97;2.73;;;9.70;99.90;;;;;;4141334;28;20217;-74
2023/03/20 00:51:18;;;;;;;3.43;2.40;;;9.70;99.90;;;;;;4138275;28;20233;-75
2023/03/20 00:53:20;;;;;;;3.30;2.40;;;9.70;99.90;;;;;;4139514;28;20214;-75
2023/03/20 00:55:24;;;;;;;4.60;2.67;;;9.70;99.90;;;;;;4153263;28;20215;-79
2023/03/20 00:57:28;;;;;;;2.97;2.50;;;9.70;99.90;;;;;;4151048;28;20216;-78
2023/03/20 00:59:34;;;;;;;3.20;2.43;;;9.70;99.90;;;;;;4137257;28;20215;-75
2023/03/20 01:01:36;;;;;;;4.47;2.80;;;9.70;99.90;;;;;;4135794;28;20239;-77
2023/03/20 01:03:38;;;;;;;6.33;3.10;;;9.70;99.90;;;;;;4146892;28;20297;-75
2023/03/20 01:05:41;;;;;;;4.37;2.77;;;9.70;99.90;;;;;;4138278;28;20210;-74
2023/03/20 01:07:44;;;;;;;4.20;2.30;;;9.70;99.90;;;;;;4132971;28;20299;-75
2023/03/20 01:09:46;;;;;;;3.80;2.60;;;9.70;99.90;;;;;;4142185;28;20487;-76
2023/03/20 01:11:48;;;;;;;3.10;2.30;;;9.70;99.90;;;;;;4137370;28;20713;-75
2023/03/20 01:13:52;;;;;;;2.97;2.00;;;9.70;99.90;;;;;;4143080;28;20303;-77
2023/03/20 01:15:56;;;;;;;2.87;2.00;;;9.70;99.90;;;;;;4140083;28;20201;-74
2023/03/20 01:17:58;;;;;;;4.40;2.53;;;9.70;99.90;;;;;;4146809;28;20264;-77
2023/03/20 01:20:00;;;;;;;2.93;2.30;;;9.70;99.90;;;;;;4141535;28;20218;-77
2023/03/20 01:22:04;;;;;;;2.73;2.10;;;9.70;99.90;;;;;;4147328;28;20402;-74
2023/03/20 01:24:05;;;;;;;2.73;2.10;;;9.70;99.90;;;;;;4145195;28;20210;-74
2023/03/20 01:26:18;;;;;;;4.63;2.60;;;9.70;99.90;;;;;;4139046;28;20242;-75
2023/03/20 01:28:23;;;;;;;5.17;3.00;;;9.70;99.90;;;;;;4135112;28;20229;-76
2023/03/20 01:30:27;;;;;;;4.17;2.83;;;9.70;99.90;;;;;;4134671;28;20215;-76
2023/03/20 01:32:29;;;;;;;3.57;2.50;;;9.70;99.90;;;;;;4140967;28;20221;-75
2023/03/20 01:34:31;;;;;;;3.83;2.60;;;9.70;99.90;;;;;;4137804;28;20238;-75
2023/03/20 01:36:33;;;;;;;5.90;3.07;;;9.70;99.90;;;;;;4154281;28;20567;-76
2023/03/20 01:38:36;;;;;;;4.80;2.70;;;9.60;99.90;;;;;;4152485;28;20859;-75
2023/03/20 01:40:47;;;;;;;3.90;2.80;;;9.70;99.90;;;;;;4144185;28;20222;-74
2023/03/20 01:42:52;;;;;;;3.90;2.73;;;9.70;99.90;;;;;;4144591;28;20646;-74
2023/03/20 01:44:54;;;;;;;4.37;2.37;;;9.70;99.90;;;;;;4138428;28;20218;-74
2023/03/20 01:46:56;;;;;;;5.57;3.20;;;9.70;99.90;;;;;;4139409;28;20233;-76
2023/03/20 01:49:09;;;;;;;5.70;2.77;;;9.70;99.90;;;;;;4146414;28;20205;-76
2023/03/20 01:51:10;;;;;;;5.57;2.93;;;9.70;99.90;;;;;;4140219;28;20265;-76
2023/03/20 01:53:16;;;;;;;4.43;3.00;;;9.60;99.90;;;;;;4142937;28;20211;-74
2023/03/20 01:55:20;;;;;;;4.60;2.87;;;9.60;99.90;;;;;;4140770;28;20225;-76
2023/03/20 01:57:25;;;;;;;4.77;2.83;;;9.60;99.90;;;;;;4137193;28;20252;-74
2023/03/20 01:59:31;;;;;;;4.43;2.90;;;9.60;99.90;;;;;;4141811;28;20265;-74
2023/03/20 02:01:35;;;;;;;3.97;2.63;;;9.60;99.90;;;;;;4142981;28;20230;-78
2023/03/20 02:03:37;;;;;;;7.23;3.17;;;9.60;99.90;;;;;;4135011;28;20218;-74
2023/03/20 02:05:39;;;;;;;3.77;2.83;;;9.50;99.90;;;;;;4140256;28;20226;-74
2023/03/20 02:07:42;;;;;;;2.90;2.27;;;9.60;99.90;;;;;;4155780;28;20319;-74
2023/03/20 02:09:44;;;;;;;5.17;2.80;;;9.50;99.90;;;;;;4139776;28;20222;-77
2023/03/20 02:11:49;;;;;;;3.20;2.40;;;9.50;99.90;;;;;;4151881;28;20236;-78
2023/03/20 02:13:59;;;;;;;4.03;2.90;;;9.50;99.90;;;;;;4144171;28;20219;-74
2023/03/20 02:16:07;;;;;;;4.97;2.77;;;9.50;99.90;;;;;;4137997;28;20627;-75
2023/03/20 02:18:09;;;;;;;3.27;2.50;;;9.50;99.90;;;;;;4152342;28;20220;-75
2023/03/20 02:20:22;;;;;;;3.63;2.70;;;9.50;99.90;;;;;;4138993;28;20728;-74
2023/03/20 02:22:45;;;;;;;3.83;2.67;;;9.50;99.90;;;;;;4155464;28;20239;-74
2023/03/20 02:25:14;;;;;;;3.80;2.83;;;9.50;99.90;;;;;;4134942;28;20315;-74
2023/03/20 02:27:29;;;;;;;4.03;2.70;;;9.50;99.90;;;;;;4147985;28;20222;-74
2023/03/20 02:30:03;;;;;;;4.20;2.80;;;9.50;99.90;;;;;;4150357;28;20218;-75
2023/03/20 02:32:34;;;;;;;3.67;2.60;;;9.70;99.90;;;;;;4136740;28;20323;-74
2023/03/20 02:35:00;;;;;;;4.33;2.90;;;9.40;99.90;;;;;;4148033;28;20218;-75
2023/03/20 02:37:35;;;;;;;5.70;3.27;;;9.50;99.90;;;;;;4142586;28;20256;-74
2023/03/20 02:39:52;;;;;;;4.60;3.20;;;9.40;99.90;;;;;;4138871;28;20250;-74
2023/03/20 02:42:07;;;;;;;4.63;2.97;;;9.40;99.90;;;;;;4148603;28;20329;-76
2023/03/20 02:44:18;;;;;;;6.53;3.43;;;9.40;99.90;;;;;;4138555;28;20678;-75
2023/03/20 02:46:28;;;;;;;4.90;3.00;;;9.40;99.90;;;;;;4147074;28;20302;-74
2023/03/20 02:48:39;;;;;;;3.40;2.83;;;9.40;99.90;;;;;;4141131;28;20975;-75
2023/03/20 02:50:48;;;;;;;4.13;2.77;;;9.30;99.90;;;;;;4143048;28;20746;-75
2023/03/20 02:53:05;;;;;;;7.50;3.23;;;9.40;99.90;;;;;;4139505;28;20667;-74
2023/03/20 02:55:16;;;;;;;5.00;3.20;;;9.40;99.90;;;;;;4139915;28;20763;-76
2023/03/20 02:57:23;;;;;;;4.10;3.00;;;9.30;99.90;;;;;;4138720;28;20315;-74
2023/03/20 02:59:32;;;;;;;6.07;3.00;;;9.40;99.90;;;;;;4143299;28;20280;-74
2023/03/20 03:01:41;;;;;;;4.47;2.90;;;9.30;99.90;;;;;;4144217;28;20222;-75
2023/03/20 03:03:48;;;;;;;3.90;2.90;;;9.30;99.90;;;;;;4144136;28;20234;-74
2023/03/20 03:05:58;;;;;;;4.00;3.07;;;9.30;99.90;;;;;;4140102;28;20306;-74
2023/03/20 03:08:03;;;;;;;4.93;3.60;;;9.30;99.90;;;;;;4141381;28;20225;-74
2023/03/20 03:10:10;;;;;;;5.13;3.30;;;9.30;99.90;;;;;;4145855;28;20219;-74
2023/03/20 03:12:17;;;;;;;5.43;3.10;;;9.30;99.90;;;;;;4148070;28;20230;-75
2023/03/20 03:14:26;;;;;;;5.30;3.77;;;9.30;99.90;;;;;;4141894;28;20215;-74
2023/03/20 03:16:33;;;;;;;6.17;3.50;;;9.30;99.90;;;;;;4145504;28;20381;-74
2023/03/20 03:18:38;;;;;;;4.63;3.40;;;9.30;99.90;;;;;;4144229;28;20300;-74
2023/03/20 03:20:42;;;;;;;5.13;3.70;;;9.30;99.90;;;;;;4139023;28;20211;-76
2023/03/20 03:22:47;;;;;;;7.23;3.80;;;9.30;99.90;;;;;;4144563;28;20269;-77
2023/03/20 03:24:51;;;;;;;6.40;3.90;;;9.30;99.90;;;;;;4146250;28;20641;-74
2023/03/20 03:26:53;;;;;;;5.83;4.00;;;9.30;99.90;;;;;;4143820;28;20215;-76
2023/03/20 03:29:00;;;;;;;9.60;4.57;;;9.20;99.90;;;;;;4145126;28;20351;-74
2023/03/20 03:31:03;;;;;;;7.70;4.67;;;9.20;99.90;;;;;;4148022;28;20324;-74
2023/03/20 03:33:15;;;;;;;7.77;4.63;;;9.20;99.90;;;;;;4147593;28;20259;-75
2023/03/20 03:35:20;;;;;;;6.40;4.63;;;9.20;99.90;;;;;;4142167;28;20263;-74
2023/03/20 03:37:36;;;;;;;6.40;4.27;;;9.20;99.90;;;;;;4144714;28;20213;-74
2023/03/20 03:39:42;;;;;;;5.97;3.60;;;9.20;99.90;;;;;;4144087;28;20297;-74
2023/03/20 03:41:47;;;;;;;4.03;3.40;;;9.20;99.90;;;;;;4145539;28;20268;-75
2023/03/20 03:43:57;;;;;;;6.27;3.93;;;9.20;99.90;;;;;;4151327;28;20708;-75
2023/03/20 03:46:05;;;;;;;5.23;3.60;;;9.20;99.90;;;;;;4146703;28;20217;-76
2023/03/20 03:48:12;;;;;;;4.70;3.67;;;9.20;99.90;;;;;;4137556;28;20233;-76
2023/03/20 03:50:20;;;;;;;6.70;3.97;;;9.10;99.90;;;;;;4150244;28;20232;-76
2023/03/20 03:52:24;;;;;;;6.03;3.53;;;9.20;99.90;;;;;;4149231;28;20366;-74
2023/03/20 03:54:30;;;;;;;7.83;4.43;;;9.10;99.90;;;;;;4151393;28;20236;-74
2023/03/20 03:56:35;;;;;;;5.03;3.70;;;9.10;99.90;;;;;;4141470;28;20225;-75
2023/03/20 03:58:40;;;;;;;5.03;3.80;;;9.10;99.90;;;;;;4149162;28;20213;-74
2023/03/20 04:00:45;;;;;;;7.00;4.10;;;9.10;99.90;;;;;;4142475;28;20241;-74
2023/03/20 04:02:52;;;;;;;5.37;4.10;;;9.10;99.90;;;;;;4144495;28;20277;-75
2023/03/20 04:04:55;;;;;;;5.40;3.73;;;9.10;99.90;;;;;;4148538;28;20302;-74
2023/03/20 04:06:57;;;;;;;9.50;4.63;;;9.10;99.90;;;;;;4145386;28;20289;-74
2023/03/20 04:08:59;;;;;;;8.43;4.70;;;9.10;99.90;;;;;;4132530;28;20238;-75
2023/03/20 04:11:03;;;;;;;6.90;4.03;;;9.10;99.90;;;;;;4154528;28;20286;-76
2023/03/20 04:13:05;;;;;;;6.43;4.23;;;9.10;99.90;;;;;;4144581;28;20206;-75
2023/03/20 04:15:08;;;;;;;4.60;3.60;;;9.10;99.90;;;;;;4140856;28;20218;-74
2023/03/20 04:17:10;;;;;;;5.53;3.77;;;9.10;99.90;;;;;;4147424;28;20233;-74
2023/03/20 04:19:13;;;;;;;6.27;3.57;;;9.10;99.90;;;;;;4150509;28;21137;-75
2023/03/20 04:21:17;;;;;;;7.10;4.20;;;9.10;99.90;;;;;;4141287;28;20265;-75
2023/03/20 04:23:19;;;;;;;5.93;3.80;;;9.10;99.90;;;;;;4140527;28;20216;-74
2023/03/20 04:25:23;;;;;;;5.53;3.57;;;9.10;99.90;;;;;;4143426;28;20289;-75
2023/03/20 04:27:25;;;;;;;5.03;4.10;;;9.10;99.90;;;;;;4139640;28;20288;-75
2023/03/20 04:29:27;;;;;;;7.20;5.10;;;9.10;99.90;;;;;;4140095;28;20911;-76
2023/03/20 04:31:29;;;;;;;7.30;4.80;;;9.10;99.90;;;;;;4139058;28;20494;-74
2023/03/20 04:33:31;;;;;;;6.83;4.10;;;9.10;99.90;;;;;;4139396;28;20209;-76
2023/03/20 04:35:34;;;;;;;5.00;3.77;;;9.00;99.90;;;;;;4141443;28;20219;-74
2023/03/20 04:37:36;;;;;;;6.57;4.10;;;9.00;99.90;;;;;;4139228;28;20211;-75
2023/03/20 04:39:38;;;;;;;7.07;4.53;;;9.10;99.90;;;;;;4136993;28;20980;-75
2023/03/20 04:41:40;;;;;;;6.40;4.00;;;9.00;99.90;;;;;;4138494;28;20257;-76
2023/03/20 04:43:42;;;;;;;7.57;5.07;;;9.00;99.90;;;;;;4147532;28;20253;-75
2023/03/20 04:45:44;;;;;;;9.73;5.53;;;9.00;99.90;;;;;;4141701;28;20235;-75
2023/03/20 04:47:46;;;;;;;8.17;4.97;;;9.00;99.90;;;;;;4148576;28;20714;-74
2023/03/20 04:49:48;;;;;;;7.20;5.17;;;9.00;99.90;;;;;;4140932;28;20214;-76
2023/03/20 04:51:51;;;;;;;6.17;4.87;;;9.00;99.90;;;;;;4139651;28;20613;-77
2023/03/20 04:53:53;;;;;;;6.80;5.07;;;9.10;99.90;;;;;;4136497;28;20205;-74
2023/03/20 04:55:55;;;;;;;6.13;4.53;;;9.10;99.90;;;;;;4138170;28;20578;-74
2023/03/20 04:57:57;;;;;;;6.03;4.30;;;9.10;99.90;;;;;;4138308;28;20634;-76
2023/03/20 04:59:59;;;;;;;7.47;4.77;;;9.00;99.90;;;;;;4140566;28;20241;-74
2023/03/20 05:02:00;;;;;;;7.13;4.57;;;9.10;99.90;;;;;;4143830;28;20221;-77
2023/03/20 05:04:02;;;;;;;9.17;5.27;;;9.00;99.90;;;;;;4141269;28;20234;-75
2023/03/20 05:06:05;;;;;;;6.23;4.20;;;9.00;99.90;;;;;;4146656;28;20243;-75
2023/03/20 05:08:08;;;;;;;5.77;4.17;;;9.00;99.90;;;;;;4143845;28;20237;-74
2023/03/20 05:10:14;;;;;;;7.23;4.47;;;9.10;99.90;;;;;;4141642;28;20227;-75
2023/03/20 05:12:16;;;;;;;7.63;4.47;;;9.10;99.90;;;;;;4145748;28;20229;-75
2023/03/20 05:14:18;;;;;;;7.77;4.63;;;9.00;99.90;;;;;;4144562;28;20229;-75
2023/03/20 05:16:20;;;;;;;6.50;4.50;;;9.00;99.90;;;;;;4147128;28;20237;-74
2023/03/20 05:18:22;;;;;;;5.83;4.47;;;9.00;99.90;;;;;;4137848;28;20213;-74
2023/03/20 05:20:27;;;;;;;5.70;4.37;;;9.00;99.90;;;;;;4147093;28;20252;-76
2023/03/20 05:22:29;;;;;;;7.03;4.83;;;9.10;99.90;;;;;;4142222;28;20222;-75
2023/03/20 05:24:32;;;;;;;7.20;4.87;;;9.00;99.90;;;;;;4143655;28;20294;-75
2023/03/20 05:26:36;;;;;;;8.00;4.97;;;9.10;99.90;;;;;;4139851;28;20210;-75
2023/03/20 05:28:38;;;;;;;7.33;4.70;;;9.10;99.90;;;;;;4145633;28;20212;-74
2023/03/20 05:30:40;;;;;;;6.10;4.37;;;9.00;99.90;;;;;;4140550;28;20221;-75
2023/03/20 05:32:42;;;;;;;6.07;4.40;;;9.00;99.90;;;;;;4147209;28;20196;-75
2023/03/20 05:34:45;;;;;;;9.00;5.10;;;9.00;99.90;;;;;;4138330;28;20267;-74
2023/03/20 05:36:47;;;;;;;6.43;4.50;;;9.10;99.90;;;;;;4141722;28;20205;-75
2023/03/20 05:38:49;;;;;;;6.80;5.00;;;9.10;99.90;;;;;;4143138;28;20637;-75
2023/03/20 05:40:56;;;;;;;5.87;4.57;;;9.10;99.90;;;;;;4148624;28;20223;-75
2023/03/20 05:42:58;;;;;;;6.17;4.53;;;9.10;99.90;;;;;;4148343;28;20217;-75
2023/03/20 05:45:03;;;;;;;7.13;4.33;;;9.10;99.90;;;;;;4142900;28;20580;-75
2023/03/20 05:47:05;;;;;;;6.60;4.47;;;9.10;99.90;;;;;;4140262;28;20241;-74
2023/03/20 05:49:08;;;;;;;6.13;4.20;;;9.10;99.90;;;;;;4141549;28;20258;-76
2023/03/20 05:51:10;;;;;;;6.80;4.00;;;9.20;99.90;;;;;;4138078;28;20324;-75
2023/03/20 05:53:12;;;;;;;6.70;4.70;;;9.20;99.90;;;;;;4140974;28;20288;-75
2023/03/20 05:55:14;;;;;;;6.63;4.30;;;9.20;99.90;;;;;;4140605;28;20536;-76
2023/03/20 05:57:18;;;;;;;6.50;4.27;;;9.20;99.90;;;;;;4134803;28;20231;-76
2023/03/20 05:59:20;;;;;;;6.47;4.37;;;9.20;99.90;;;;;;4138007;28;20213;-77
2023/03/20 06:01:22;;;;;;;5.53;4.30;;;9.20;99.90;;;;;;4143379;28;20230;-75
2023/03/20 06:03:24;;;;;;;6.70;4.07;;;9.20;99.90;;;;;;4141440;28;20305;-77
2023/03/20 06:05:26;;;;;;;5.80;4.00;;;9.30;99.90;;;;;;4149177;28;20207;-76
2023/03/20 06:07:28;;;;;;;8.17;5.57;;;9.30;99.90;;;;;;4140464;28;20665;-76
2023/03/20 06:09:30;;;;;;;6.50;4.50;;;9.30;99.90;;;;;;4150562;28;20242;-75
2023/03/20 06:11:32;;;;;;;7.30;4.30;;;9.30;99.90;;;;;;4138036;28;20231;-76
2023/03/20 06:13:35;;;;;;;5.40;3.93;;;9.40;99.90;;;;;;4139009;28;20213;-76
2023/03/20 06:15:37;;;;;;;6.43;3.90;;;9.30;99.90;;;;;;4137476;28;20254;-76
2023/03/20 06:17:40;;;;;;;5.63;3.60;;;9.40;99.90;;;;;;4139273;28;20213;-74
2023/03/20 06:19:41;;;;;;;7.30;5.03;;;9.40;99.90;;;;;;4145216;28;20296;-75
2023/03/20 06:21:43;;;;;;;8.10;5.10;;;9.40;99.90;;;;;;4135399;28;20257;-75
2023/03/20 06:23:45;;;;;;;5.40;4.03;;;9.40;99.90;;;;;;4143716;28;20302;-75
2023/03/20 06:25:47;;;;;;;7.17;4.70;;;9.50;99.90;;;;;;4139638;28;20242;-75
2023/03/20 06:27:49;;;;;;;6.03;4.23;;;9.50;99.90;;;;;;4155945;28;20671;-75
2023/03/20 06:29:52;;;;;;;7.87;4.97;;;9.50;99.90;;;;;;4140576;28;20206;-74
2023/03/20 06:31:54;;;;;;;7.80;4.93;;;9.50;99.90;;;;;;4138659;28;20231;-75
2023/03/20 06:33:56;;;;;;;5.23;3.73;;;9.50;99.90;;;;;;4141501;28;20587;-75
2023/03/20 06:36:01;;;;;;;5.93;4.07;;;9.50;99.90;;;;;;4140957;28;20293;-77
2023/03/20 06:38:03;;;;;;;6.10;4.00;;;9.60;99.90;;;;;;4130625;28;20226;-77
2023/03/20 06:40:06;;;;;;;6.50;3.77;;;9.60;99.90;;;;;;4129089;28;20607;-76
2023/03/20 06:42:08;;;;;;;6.70;3.83;;;9.60;99.90;;;;;;4142064;28;20645;-75
2023/03/20 06:44:11;;;;;;;5.47;3.87;;;9.60;99.90;;;;;;4144669;28;20298;-76
2023/03/20 06:46:15;;;;;;;5.33;3.60;;;9.60;99.90;;;;;;4144096;28;20249;-77
2023/03/20 06:48:20;;;;;;;5.70;3.63;;;9.60;99.90;;;;;;4143851;28;20257;-76
2023/03/20 06:50:22;;;;;;;5.47;3.80;;;9.70;99.90;;;;;;4150418;28;20238;-74
2023/03/20 06:52:24;;;;;;;5.83;3.87;;;9.60;99.90;;;;;;4153681;28;20239;-74
2023/03/20 06:54:27;;;;;;;5.10;3.67;;;9.60;99.90;;;;;;4154851;28;20633;-74
2023/03/20 06:56:28;;;;;;;5.30;3.67;;;9.70;99.90;;;;;;4150950;28;20250;-77
2023/03/20 06:58:30;;;;;;;7.03;4.30;;;9.70;99.90;;;;;;4149608;28;20237;-75
2023/03/20 07:00:33;;;;;;;7.40;5.10;;;9.70;99.90;;;;;;4148605;28;20594;-76
2023/03/20 07:02:36;;;;;;;9.33;5.57;;;9.70;99.90;;;;;;4149399;28;20587;-75
2023/03/20 07:04:38;;;;;;;8.03;5.03;;;9.70;99.90;;;;;;4140679;28;20231;-76
2023/03/20 07:06:40;;;;;;;11.13;6.20;;;9.70;99.90;;;;;;4140738;28;20229;-75
2023/03/20 07:08:42;;;;;;;7.77;5.50;;;9.80;99.90;;;;;;4135014;28;20740;-77
2023/03/20 07:10:44;;;;;;;7.70;5.23;;;9.80;99.90;;;;;;4136956;28;20691;-77
2023/03/20 07:12:46;;;;;;;16.93;9.00;;;9.80;99.90;;;;;;4151551;28;20233;-74
2023/03/20 07:14:48;;;;;;;13.53;7.57;;;9.80;99.90;;;;;;4148840;28;20210;-75
2023/03/20 07:16:50;;;;;;;17.47;9.80;;;9.90;99.90;;;;;;4156491;28;20302;-75
2023/03/20 07:18:54;;;;;;;15.67;9.00;;;9.90;99.90;;;;;;4147536;28;20206;-76
2023/03/20 07:21:01;;;;;;;21.20;11.20;;;9.90;99.90;;;;;;4155251;28;20223;-74
2023/03/20 07:23:03;;;;;;;23.57;11.70;;;9.90;99.90;;;;;;4153847;28;20641;-76
2023/03/20 07:25:06;;;;;;;19.17;10.27;;;10.00;99.90;;;;;;4147635;28;20289;-75
2023/03/20 07:27:08;;;;;;;18.97;10.37;;;10.00;99.90;;;;;;4145904;28;20625;-75
2023/03/20 07:29:10;;;;;;;19.57;10.07;;;10.00;99.90;;;;;;4148927;28;20210;-74
2023/03/20 07:31:19;;;;;;;21.90;11.60;;;10.00;99.90;;;;;;4151442;28;20314;-74
2023/03/20 07:33:21;;;;;;;24.10;11.80;;;10.00;99.90;;;;;;4148704;28;20198;-75
2023/03/20 07:35:25;;;;;;;25.93;12.67;;;10.00;99.90;;;;;;4168334;28;20256;-75
2023/03/20 07:37:27;;;;;;;25.67;12.63;;;10.00;99.90;;;;;;4145865;28;20252;-76
2023/03/20 07:39:29;;;;;;;25.10;12.50;;;10.10;99.90;;;;;;4149050;28;20820;-75
2023/03/20 07:41:31;;;;;;;22.87;12.30;;;10.10;99.90;;;;;;4150169;28;20257;-74
2023/03/20 07:43:33;;;;;;;25.23;12.80;;;10.10;99.90;;;;;;4146496;28;20255;-75
2023/03/20 07:45:34;;;;;;;24.77;12.00;;;10.10;99.90;;;;;;4153548;28;20246;-75
2023/03/20 07:47:36;;;;;;;22.53;11.83;;;10.10;99.90;;;;;;4150278;28;20302;-75
2023/03/20 07:49:43;;;;;;;26.60;12.50;;;10.20;99.90;;;;;;4147789;28;20613;-74
2023/03/20 07:51:47;;;;;;;25.70;12.87;;;10.10;99.90;;;;;;4150377;28;20707;-74
2023/03/20 07:53:49;;;;;;;29.03;14.50;;;10.20;99.90;;;;;;4152336;28;20661;-75
2023/03/20 07:55:51;;;;;;;28.93;14.07;;;10.20;99.90;;;;;;4152733;28;20236;-74
2023/03/20 07:57:54;;;;;;;34.40;15.97;;;10.30;99.90;;;;;;4149730;28;20249;-78
2023/03/20 07:59:55;;;;;;;28.70;13.63;;;10.30;99.90;;;;;;4141060;28;20212;-77
2023/03/20 08:01:58;;;;;;;32.80;15.33;;;10.40;99.90;;;;;;4142101;28;20246;-78
2023/03/20 08:04:00;;;;;;;39.37;17.73;;;10.40;99.90;;;;;;4139524;28;20327;-77
2023/03/20 08:06:03;;;;;;;42.50;20.07;;;10.50;99.90;;;;;;4139487;28;20220;-78
2023/03/20 08:08:06;;;;;;;35.10;17.50;;;10.50;99.90;;;;;;4142534;28;20211;-77
2023/03/20 08:10:12;;;;;;;32.73;16.30;;;10.60;99.90;;;;;;4144429;28;20214;-77
2023/03/20 08:12:15;;;;;;;34.00;16.20;;;10.60;99.90;;;;;;4141716;28;20231;-77
2023/03/20 08:14:17;;;;;;;32.03;16.70;;;10.60;99.90;;;;;;4142092;28;20214;-78
2023/03/20 08:16:19;;;;;;;38.10;17.60;;;10.70;99.90;;;;;;4139318;28;20203;-78
2023/03/20 08:18:21;;;;;;;36.47;17.30;;;10.90;99.90;;;;;;4137330;28;20238;-78
2023/03/20 08:20:23;;;;;;;30.90;15.60;;;10.70;99.90;;;;;;4150805;28;20215;-77
2023/03/20 08:22:25;;;;;;;30.93;15.47;;;10.80;99.90;;;;;;4138556;28;20212;-77
2023/03/20 08:24:28;;;;;;;35.10;17.13;;;10.90;99.90;;;;;;4136366;28;20686;-77
2023/03/20 08:26:30;;;;;;;33.40;16.00;;;10.90;99.90;;;;;;4140914;28;20250;-77
2023/03/20 08:28:32;;;;;;;39.73;18.90;;;10.90;99.90;;;;;;4138906;28;20207;-78
2023/03/20 08:30:34;;;;;;;33.67;17.17;;;11.00;99.90;;;;;;4136634;28;20204;-77
2023/03/20 08:32:37;;;;;;;34.63;17.80;;;11.00;99.90;;;;;;4140018;28;20262;-77
2023/03/20 08:34:39;;;;;;;37.53;17.20;;;11.00;99.90;;;;;;4139588;28;20200;-78
2023/03/20 08:36:41;;;;;;;36.20;17.00;;;11.10;99.90;;;;;;4140156;28;20215;-76
2023/03/20 08:38:43;;;;;;;32.70;16.30;;;11.10;99.90;;;;;;4140732;28;20270;-77
2023/03/20 08:40:47;;;;;;;32.33;16.63;;;11.20;99.90;;;;;;4141495;28;20307;-76
2023/03/20 08:42:48;;;;;;;35.77;16.83;;;11.30;99.90;;;;;;4140698;28;20215;-77
2023/03/20 08:44:50;;;;;;;33.77;16.67;;;11.30;99.90;;;;;;4143453;28;20231;-77
2023/03/20 08:46:53;;;;;;;33.70;16.70;;;11.40;99.90;;;;;;4145185;28;20195;-77
2023/03/20 08:48:57;;;;;;;48.13;22.40;;;11.40;99.90;;;;;;4142430;28;20693;-76
2023/03/20 08:50:59;;;;;;;40.03;18.93;;;11.40;99.90;;;;;;4138201;28;20624;-77
2023/03/20 08:53:04;;;;;;;44.53;21.27;;;11.50;99.90;;;;;;4139896;28;20211;-77
2023/03/20 08:55:06;;;;;;;44.73;20.87;;;11.50;99.90;;;;;;4140776;28;20800;-76
2023/03/20 08:57:10;;;;;;;48.80;23.77;;;11.40;99.90;;;;;;4139634;28;20218;-76
2023/03/20 08:59:12;;;;;;;44.73;22.37;;;11.40;99.90;;;;;;4143064;28;20232;-76
2023/03/20 09:01:15;;;;;;;49.13;22.57;;;11.40;99.90;;;;;;4151893;28;20266;-77
2023/03/20 09:03:19;;;;;;;46.40;22.07;;;11.40;99.90;;;;;;4144889;28;20734;-77
2023/03/20 09:05:22;;;;;;;43.83;21.70;;;11.40;99.90;;;;;;4152189;28;20683;-78
2023/03/20 09:07:24;;;;;;;45.30;20.90;;;11.40;99.90;;;;;;4139323;28;20228;-77
2023/03/20 09:09:28;;;;;;;46.83;22.03;;;11.40;99.90;;;;;;4137949;28;20231;-76
2023/03/20 09:11:30;;;;;;;42.73;19.60;;;11.40;99.90;;;;;;4139311;28;20310;-77
2023/03/20 09:13:33;;;;;;;44.57;20.30;;;11.40;99.90;;;;;;4139004;28;20211;-77
2023/03/20 09:15:36;;;;;;;45.13;21.97;;;11.50;99.90;;;;;;4141758;28;20208;-78
2023/03/20 09:17:38;;;;;;;44.77;21.03;;;11.40;99.90;;;;;;4139835;28;20205;-77
2023/03/20 09:19:43;;;;;;;41.50;19.93;;;11.40;99.90;;;;;;4142236;28;20207;-78
2023/03/20 09:21:45;;;;;;;40.97;20.27;;;11.40;99.90;;;;;;4134434;28;20231;-76
2023/03/20 09:23:47;;;;;;;42.77;20.50;;;11.40;99.90;;;;;;4136807;28;20239;-77
2023/03/20 09:25:49;;;;;;;41.10;19.87;;;11.30;99.90;;;;;;4138411;28;20618;-77
2023/03/20 09:27:54;;;;;;;46.53;21.80;;;11.30;99.90;;;;;;4142729;28;20200;-77
2023/03/20 09:29:57;;;;;;;48.73;22.57;;;11.30;99.90;;;;;;4139185;28;20576;-78
2023/03/20 09:31:59;;;;;;;41.27;19.87;;;11.30;99.90;;;;;;4139476;28;20230;-76
2023/03/20 09:34:01;;;;;;;44.53;20.27;;;11.30;99.90;;;;;;4138270;28;20228;-76
2023/03/20 09:36:03;;;;;;;50.20;22.53;;;11.30;99.90;;;;;;4139039;28;21152;-75
2023/03/20 09:38:06;;;;;;;46.13;21.37;;;11.30;99.90;;;;;;4139265;28;20207;-77
2023/03/20 09:40:17;;;;;;;43.13;20.50;;;11.20;99.90;;;;;;4136560;28;20298;-77
2023/03/20 09:42:32;;;;;;;48.73;21.47;;;11.20;99.90;;;;;;4139475;28;20232;-77
2023/03/20 09:44:44;;;;;;;44.63;20.77;;;11.20;99.90;;;;;;4151820;28;20212;-77
2023/03/20 09:47:07;;;;;;;43.60;19.97;;;11.20;99.90;;;;;;4136855;28;20203;-77
2023/03/20 09:49:17;;;;;;;42.43;20.13;;;11.20;99.90;;;;;;4139139;28;20207;-77
2023/03/20 09:51:28;;;;;;;43.70;19.97;;;11.20;99.90;;;;;;4138946;28;20255;-78
2023/03/20 09:53:34;;;;;;;55.13;22.70;;;11.20;99.90;;;;;;4155529;28;20248;-77
2023/03/20 09:55:37;;;;;;;54.33;22.20;;;11.20;99.90;;;;;;4139677;28;20274;-79
2023/03/20 09:57:41;;;;;;;54.63;22.27;;;11.20;99.90;;;;;;4141611;28;20303;-76
2023/03/20 09:59:44;;;;;;;47.97;21.10;;;11.20;99.90;;;;;;4139407;28;20748;-78
2023/03/20 10:01:52;;;;;;;45.87;20.77;;;11.20;99.90;;;;;;4140191;28;20242;-77
2023/03/20 10:03:58;;;;;;;44.33;19.77;;;11.20;99.90;;;;;;4140485;28;20238;-78
2023/03/20 10:06:03;;;;;;;45.43;19.67;;;11.20;99.90;;;;;;4139326;28;20212;-77
2023/03/20 10:08:08;;;;;;;53.20;21.23;;;11.20;99.90;;;;;;4140752;28;20246;-77
2023/03/20 10:10:13;;;;;;;46.77;21.10;;;11.20;99.90;;;;;;4140463;28;20199;-77
2023/03/20 10:12:30;;;;;;;43.00;19.27;;;11.20;99.90;;;;;;4138588;28;20255;-78
2023/03/20 10:14:42;;;;;;;40.87;19.20;;;11.20;99.90;;;;;;4152074;28;20736;-77
2023/03/20 10:16:56;;;;;;;42.07;19.60;;;11.20;99.90;;;;;;4154916;28;20207;-78
2023/03/20 10:19:06;;;;;;;44.07;20.77;;;11.20;99.90;;;;;;4138267;28;20220;-77
2023/03/20 10:21:17;;;;;;;40.70;19.90;;;11.30;99.90;;;;;;4137326;28;20231;-77
2023/03/20 10:23:25;;;;;;;42.33;20.40;;;11.30;99.90;;;;;;4141347;28;20218;-78
2023/03/20 10:25:32;;;;;;;47.53;21.43;;;11.30;99.90;;;;;;4139679;28;20291;-76
2023/03/20 10:27:39;;;;;;;48.80;22.30;;;11.30;99.90;;;;;;4139925;28;20290;-76
2023/03/20 10:29:51;;;;;;;45.13;20.90;;;11.30;99.90;;;;;;4144095;28;20216;-77
2023/03/20 10:32:01;;;;;;;40.37;19.67;;;11.30;99.90;;;;;;4141305;28;20227;-77
2023/03/20 10:34:14;;;;;;;41.53;19.70;;;11.30;99.90;;;;;;4141189;28;20250;-76
2023/03/20 10:36:34;;;;;;;44.17;20.43;;;11.30;99.90;;;;;;4141396;28;20211;-77
2023/03/20 10:38:42;;;;;;;42.00;19.27;;;11.30;99.90;;;;;;4145471;28;20203;-78
2023/03/20 10:40:44;;;;;;;43.47;20.63;;;11.30;99.90;;;;;;4151817;28;20238;-76
2023/03/20 10:42:49;;;;;;;44.63;20.70;;;11.30;99.90;;;;;;4136792;28;20240;-77
2023/03/20 10:44:56;;;;;;;43.70;20.53;;;11.30;99.90;;;;;;4140316;28;20293;-76
2023/03/20 10:47:03;;;;;;;43.70;20.17;;;11.40;99.90;;;;;;4142719;28;20194;-77
2023/03/20 10:49:13;;;;;;;44.03;20.87;;;11.30;99.90;;;;;;4143325;28;20209;-77
2023/03/20 10:51:17;;;;;;;45.77;21.53;;;11.30;99.90;;;;;;4143675;28;20235;-77